sensor_id;sensor_type;location;lat;lon;timestamp;P1;durP1;ratioP1;P2;durP2;ratioP2
30048;SDS011;16879;50.852;15.602;2023-02-22T00:00:38;24.23;;;8.70;;
30048;SDS011;16879;50.852;15.602;2023-02-22T00:05:36;16.20;;;7.55;;
30048;SDS011;16879;50.852;15.602;2023-02-22T00:08:09;15.43;;;7.25;;
30048;SDS011;16879;50.852;15.602;2023-02-22T00:10:36;14.55;;;7.00;;
30048;SDS011;16879;50.852;15.602;2023-02-22T00:13:03;15.13;;;7.07;;
30048;SDS011;16879;50.852;15.602;2023-02-22T00:15:30;15.23;;;7.07;;
30048;SDS011;16879;50.852;15.602;2023-02-22T00:17:57;10.15;;;5.72;;
30048;SDS011;16879;50.852;15.602;2023-02-22T00:20:24;14.63;;;6.63;;
30048;SDS011;16879;50.852;15.602;2023-02-22T00:22:51;17.88;;;6.93;;
30048;SDS011;16879;50.852;15.602;2023-02-22T00:25:22;13.75;;;5.22;;
30048;SDS011;16879;50.852;15.602;2023-02-22T00:27:50;14.63;;;6.43;;
30048;SDS011;16879;50.852;15.602;2023-02-22T00:30:21;16.70;;;9.55;;
30048;SDS011;16879;50.852;15.602;2023-02-22T00:32:51;21.30;;;12.15;;
30048;SDS011;16879;50.852;15.602;2023-02-22T00:35:18;16.15;;;7.20;;
30048;SDS011;16879;50.852;15.602;2023-02-22T00:37:49;20.23;;;6.38;;
30048;SDS011;16879;50.852;15.602;2023-02-22T00:40:18;16.17;;;6.65;;
30048;SDS011;16879;50.852;15.602;2023-02-22T00:42:44;18.13;;;7.47;;
30048;SDS011;16879;50.852;15.602;2023-02-22T00:45:10;12.40;;;6.15;;
30048;SDS011;16879;50.852;15.602;2023-02-22T00:47:37;17.20;;;7.22;;
30048;SDS011;16879;50.852;15.602;2023-02-22T00:50:03;14.68;;;6.18;;
30048;SDS011;16879;50.852;15.602;2023-02-22T00:52:29;15.57;;;5.78;;
30048;SDS011;16879;50.852;15.602;2023-02-22T00:54:56;11.32;;;5.57;;
30048;SDS011;16879;50.852;15.602;2023-02-22T00:57:24;10.35;;;4.72;;
30048;SDS011;16879;50.852;15.602;2023-02-22T00:59:50;9.93;;;4.63;;
30048;SDS011;16879;50.852;15.602;2023-02-22T01:02:16;9.07;;;4.45;;
30048;SDS011;16879;50.852;15.602;2023-02-22T01:04:42;8.32;;;4.80;;
30048;SDS011;16879;50.852;15.602;2023-02-22T01:07:13;11.50;;;4.82;;
30048;SDS011;16879;50.852;15.602;2023-02-22T01:09:39;12.68;;;5.43;;
30048;SDS011;16879;50.852;15.602;2023-02-22T01:12:05;10.95;;;4.70;;
30048;SDS011;16879;50.852;15.602;2023-02-22T01:14:32;11.57;;;4.13;;
30048;SDS011;16879;50.852;15.602;2023-02-22T01:16:58;10.48;;;4.07;;
30048;SDS011;16879;50.852;15.602;2023-02-22T01:19:24;9.43;;;4.35;;
30048;SDS011;16879;50.852;15.602;2023-02-22T01:21:50;8.85;;;4.10;;
30048;SDS011;16879;50.852;15.602;2023-02-22T01:24:17;9.77;;;3.35;;
30048;SDS011;16879;50.852;15.602;2023-02-22T01:26:47;13.10;;;4.30;;
30048;SDS011;16879;50.852;15.602;2023-02-22T01:29:14;9.15;;;4.00;;
30048;SDS011;16879;50.852;15.602;2023-02-22T01:31:41;8.23;;;3.97;;
30048;SDS011;16879;50.852;15.602;2023-02-22T01:34:10;8.82;;;4.07;;
30048;SDS011;16879;50.852;15.602;2023-02-22T01:36:37;8.10;;;3.80;;
30048;SDS011;16879;50.852;15.602;2023-02-22T01:39:06;7.00;;;3.40;;
30048;SDS011;16879;50.852;15.602;2023-02-22T01:41:34;8.52;;;3.17;;
30048;SDS011;16879;50.852;15.602;2023-02-22T01:47:03;7.22;;;4.28;;
30048;SDS011;16879;50.852;15.602;2023-02-22T01:52:00;8.68;;;4.60;;
30048;SDS011;16879;50.852;15.602;2023-02-22T01:54:32;11.60;;;6.18;;
30048;SDS011;16879;50.852;15.602;2023-02-22T01:57:13;6.90;;;4.20;;
30048;SDS011;16879;50.852;15.602;2023-02-22T01:59:42;8.55;;;4.50;;
30048;SDS011;16879;50.852;15.602;2023-02-22T02:02:09;10.00;;;4.63;;
30048;SDS011;16879;50.852;15.602;2023-02-22T02:04:36;6.85;;;3.08;;
30048;SDS011;16879;50.852;15.602;2023-02-22T02:07:03;6.10;;;2.95;;
30048;SDS011;16879;50.852;15.602;2023-02-22T02:11:59;4.15;;;2.35;;
30048;SDS011;16879;50.852;15.602;2023-02-22T02:14:27;2.92;;;2.00;;
30048;SDS011;16879;50.852;15.602;2023-02-22T02:16:56;3.65;;;2.17;;
30048;SDS011;16879;50.852;15.602;2023-02-22T02:19:32;7.55;;;1.90;;
30048;SDS011;16879;50.852;15.602;2023-02-22T02:26:56;1.45;;;1.30;;
30048;SDS011;16879;50.852;15.602;2023-02-22T02:38:05;5.18;;;1.48;;
30048;SDS011;16879;50.852;15.602;2023-02-22T02:45:48;3.33;;;1.88;;
30048;SDS011;16879;50.852;15.602;2023-02-22T02:48:20;5.35;;;3.47;;
30048;SDS011;16879;50.852;15.602;2023-02-22T02:50:50;8.43;;;3.28;;
30048;SDS011;16879;50.852;15.602;2023-02-22T02:53:24;12.32;;;5.35;;
30048;SDS011;16879;50.852;15.602;2023-02-22T02:55:51;9.20;;;4.13;;
30048;SDS011;16879;50.852;15.602;2023-02-22T02:58:18;7.72;;;4.03;;
30048;SDS011;16879;50.852;15.602;2023-02-22T03:00:46;4.82;;;3.05;;
30048;SDS011;16879;50.852;15.602;2023-02-22T03:06:22;6.75;;;3.35;;
30048;SDS011;16879;50.852;15.602;2023-02-22T03:11:22;5.80;;;3.33;;
30048;SDS011;16879;50.852;15.602;2023-02-22T03:16:49;7.75;;;4.07;;
30048;SDS011;16879;50.852;15.602;2023-02-22T03:22:09;5.60;;;3.20;;
30048;SDS011;16879;50.852;15.602;2023-02-22T03:24:38;5.25;;;3.00;;
30048;SDS011;16879;50.852;15.602;2023-02-22T03:27:17;4.60;;;2.65;;
30048;SDS011;16879;50.852;15.602;2023-02-22T03:29:45;3.22;;;2.33;;
30048;SDS011;16879;50.852;15.602;2023-02-22T03:32:21;2.42;;;2.22;;
30048;SDS011;16879;50.852;15.602;2023-02-22T03:37:18;2.47;;;2.28;;
30048;SDS011;16879;50.852;15.602;2023-02-22T03:39:46;2.13;;;1.70;;
30048;SDS011;16879;50.852;15.602;2023-02-22T03:42:14;1.92;;;1.50;;
30048;SDS011;16879;50.852;15.602;2023-02-22T03:44:41;1.75;;;1.30;;
30048;SDS011;16879;50.852;15.602;2023-02-22T03:47:10;1.88;;;1.40;;
30048;SDS011;16879;50.852;15.602;2023-02-22T03:52:06;3.75;;;1.42;;
30048;SDS011;16879;50.852;15.602;2023-02-22T03:54:33;2.83;;;2.50;;
30048;SDS011;16879;50.852;15.602;2023-02-22T03:57:13;4.15;;;2.88;;
30048;SDS011;16879;50.852;15.602;2023-02-22T03:59:47;4.60;;;2.70;;
30048;SDS011;16879;50.852;15.602;2023-02-22T04:02:14;4.88;;;3.03;;
30048;SDS011;16879;50.852;15.602;2023-02-22T04:04:43;2.88;;;2.42;;
30048;SDS011;16879;50.852;15.602;2023-02-22T04:07:10;6.28;;;3.92;;
30048;SDS011;16879;50.852;15.602;2023-02-22T04:09:36;7.75;;;5.82;;
30048;SDS011;16879;50.852;15.602;2023-02-22T04:12:02;14.15;;;9.40;;
30048;SDS011;16879;50.852;15.602;2023-02-22T04:14:28;11.80;;;6.78;;
30048;SDS011;16879;50.852;15.602;2023-02-22T04:16:54;9.88;;;5.38;;
30048;SDS011;16879;50.852;15.602;2023-02-22T04:19:21;17.45;;;6.78;;
30048;SDS011;16879;50.852;15.602;2023-02-22T04:21:47;24.02;;;11.02;;
30048;SDS011;16879;50.852;15.602;2023-02-22T04:24:13;25.50;;;9.73;;
30048;SDS011;16879;50.852;15.602;2023-02-22T04:26:39;29.13;;;11.13;;
30048;SDS011;16879;50.852;15.602;2023-02-22T04:29:06;19.60;;;10.73;;
30048;SDS011;16879;50.852;15.602;2023-02-22T04:31:32;19.08;;;9.25;;
30048;SDS011;16879;50.852;15.602;2023-02-22T04:33:59;17.30;;;8.15;;
30048;SDS011;16879;50.852;15.602;2023-02-22T04:36:25;12.73;;;7.40;;
30048;SDS011;16879;50.852;15.602;2023-02-22T04:38:52;6.97;;;4.40;;
30048;SDS011;16879;50.852;15.602;2023-02-22T04:41:19;7.35;;;4.78;;
30048;SDS011;16879;50.852;15.602;2023-02-22T04:43:45;6.43;;;3.85;;
30048;SDS011;16879;50.852;15.602;2023-02-22T04:46:11;8.80;;;4.35;;
30048;SDS011;16879;50.852;15.602;2023-02-22T04:48:40;4.43;;;3.25;;
30048;SDS011;16879;50.852;15.602;2023-02-22T04:51:06;5.05;;;3.47;;
30048;SDS011;16879;50.852;15.602;2023-02-22T04:53:32;4.30;;;3.42;;
30048;SDS011;16879;50.852;15.602;2023-02-22T04:55:59;6.40;;;3.88;;
30048;SDS011;16879;50.852;15.602;2023-02-22T04:58:25;5.65;;;4.40;;
30048;SDS011;16879;50.852;15.602;2023-02-22T05:00:51;7.10;;;4.13;;
30048;SDS011;16879;50.852;15.602;2023-02-22T05:03:17;7.15;;;4.80;;
30048;SDS011;16879;50.852;15.602;2023-02-22T05:05:44;9.43;;;5.65;;
30048;SDS011;16879;50.852;15.602;2023-02-22T05:08:10;10.82;;;6.25;;
30048;SDS011;16879;50.852;15.602;2023-02-22T05:10:36;10.38;;;6.28;;
30048;SDS011;16879;50.852;15.602;2023-02-22T05:13:03;9.80;;;5.30;;
30048;SDS011;16879;50.852;15.602;2023-02-22T05:15:30;6.97;;;4.95;;
30048;SDS011;16879;50.852;15.602;2023-02-22T05:17:56;7.30;;;5.07;;
30048;SDS011;16879;50.852;15.602;2023-02-22T05:20:27;7.82;;;5.05;;
30048;SDS011;16879;50.852;15.602;2023-02-22T05:22:57;6.10;;;3.83;;
30048;SDS011;16879;50.852;15.602;2023-02-22T05:25:42;9.88;;;5.20;;
30048;SDS011;16879;50.852;15.602;2023-02-22T05:28:11;6.40;;;4.65;;
30048;SDS011;16879;50.852;15.602;2023-02-22T05:30:38;4.93;;;3.97;;
30048;SDS011;16879;50.852;15.602;2023-02-22T05:33:04;7.55;;;4.45;;
30048;SDS011;16879;50.852;15.602;2023-02-22T05:35:31;9.57;;;5.15;;
30048;SDS011;16879;50.852;15.602;2023-02-22T05:37:57;5.38;;;3.63;;
30048;SDS011;16879;50.852;15.602;2023-02-22T05:40:26;8.07;;;4.18;;
30048;SDS011;16879;50.852;15.602;2023-02-22T05:43:13;6.10;;;4.32;;
30048;SDS011;16879;50.852;15.602;2023-02-22T05:45:40;10.15;;;5.03;;
30048;SDS011;16879;50.852;15.602;2023-02-22T05:48:07;7.50;;;5.20;;
30048;SDS011;16879;50.852;15.602;2023-02-22T05:50:33;8.82;;;4.25;;
30048;SDS011;16879;50.852;15.602;2023-02-22T05:52:59;6.95;;;4.00;;
30048;SDS011;16879;50.852;15.602;2023-02-22T05:55:25;8.32;;;4.85;;
30048;SDS011;16879;50.852;15.602;2023-02-22T05:57:52;4.60;;;3.65;;
30048;SDS011;16879;50.852;15.602;2023-02-22T06:00:26;6.72;;;4.97;;
30048;SDS011;16879;50.852;15.602;2023-02-22T06:03:13;9.45;;;4.78;;
30048;SDS011;16879;50.852;15.602;2023-02-22T06:05:39;6.63;;;4.15;;
30048;SDS011;16879;50.852;15.602;2023-02-22T06:08:06;5.72;;;4.28;;
30048;SDS011;16879;50.852;15.602;2023-02-22T06:10:32;4.90;;;3.17;;
30048;SDS011;16879;50.852;15.602;2023-02-22T06:12:59;7.18;;;4.80;;
30048;SDS011;16879;50.852;15.602;2023-02-22T06:15:29;6.35;;;4.35;;
30048;SDS011;16879;50.852;15.602;2023-02-22T06:17:55;9.25;;;5.15;;
30048;SDS011;16879;50.852;15.602;2023-02-22T06:20:23;8.45;;;4.65;;
30048;SDS011;16879;50.852;15.602;2023-02-22T06:22:50;9.23;;;5.50;;
30048;SDS011;16879;50.852;15.602;2023-02-22T06:25:18;8.18;;;5.60;;
30048;SDS011;16879;50.852;15.602;2023-02-22T06:27:45;6.93;;;4.32;;
30048;SDS011;16879;50.852;15.602;2023-02-22T06:30:11;13.57;;;5.93;;
30048;SDS011;16879;50.852;15.602;2023-02-22T06:32:38;9.35;;;6.20;;
30048;SDS011;16879;50.852;15.602;2023-02-22T06:35:04;12.05;;;7.45;;
30048;SDS011;16879;50.852;15.602;2023-02-22T06:37:30;7.05;;;5.63;;
30048;SDS011;16879;50.852;15.602;2023-02-22T06:39:56;14.25;;;8.10;;
30048;SDS011;16879;50.852;15.602;2023-02-22T06:42:22;10.18;;;6.45;;
30048;SDS011;16879;50.852;15.602;2023-02-22T06:44:49;18.30;;;8.70;;
30048;SDS011;16879;50.852;15.602;2023-02-22T06:47:15;19.10;;;10.43;;
30048;SDS011;16879;50.852;15.602;2023-02-22T06:49:42;24.40;;;12.55;;
30048;SDS011;16879;50.852;15.602;2023-02-22T06:52:08;32.85;;;15.07;;
30048;SDS011;16879;50.852;15.602;2023-02-22T06:54:35;36.78;;;16.70;;
30048;SDS011;16879;50.852;15.602;2023-02-22T06:57:02;40.72;;;15.82;;
30048;SDS011;16879;50.852;15.602;2023-02-22T06:59:28;31.52;;;13.85;;
30048;SDS011;16879;50.852;15.602;2023-02-22T07:01:54;31.08;;;14.95;;
30048;SDS011;16879;50.852;15.602;2023-02-22T07:04:21;26.75;;;13.23;;
30048;SDS011;16879;50.852;15.602;2023-02-22T07:06:48;70.80;;;28.98;;
30048;SDS011;16879;50.852;15.602;2023-02-22T07:09:15;113.45;;;40.80;;
30048;SDS011;16879;50.852;15.602;2023-02-22T07:11:41;68.63;;;34.78;;
30048;SDS011;16879;50.852;15.602;2023-02-22T07:14:08;48.58;;;27.85;;
30048;SDS011;16879;50.852;15.602;2023-02-22T07:16:34;38.05;;;21.20;;
30048;SDS011;16879;50.852;15.602;2023-02-22T07:19:00;35.70;;;19.58;;
30048;SDS011;16879;50.852;15.602;2023-02-22T07:21:27;32.65;;;17.42;;
30048;SDS011;16879;50.852;15.602;2023-02-22T07:23:54;31.20;;;16.95;;
30048;SDS011;16879;50.852;15.602;2023-02-22T07:26:21;34.50;;;17.85;;
30048;SDS011;16879;50.852;15.602;2023-02-22T07:28:49;33.95;;;17.08;;
30048;SDS011;16879;50.852;15.602;2023-02-22T07:31:15;28.88;;;15.23;;
30048;SDS011;16879;50.852;15.602;2023-02-22T07:33:42;30.60;;;15.13;;
30048;SDS011;16879;50.852;15.602;2023-02-22T07:36:08;27.90;;;15.35;;
30048;SDS011;16879;50.852;15.602;2023-02-22T07:38:34;24.35;;;15.07;;
30048;SDS011;16879;50.852;15.602;2023-02-22T07:41:00;35.05;;;20.88;;
30048;SDS011;16879;50.852;15.602;2023-02-22T07:43:27;33.03;;;19.25;;
30048;SDS011;16879;50.852;15.602;2023-02-22T07:45:55;41.30;;;24.35;;
30048;SDS011;16879;50.852;15.602;2023-02-22T07:48:23;35.58;;;20.55;;
30048;SDS011;16879;50.852;15.602;2023-02-22T07:50:49;38.42;;;21.77;;
30048;SDS011;16879;50.852;15.602;2023-02-22T07:53:26;36.40;;;21.63;;
30048;SDS011;16879;50.852;15.602;2023-02-22T07:55:55;32.90;;;20.55;;
30048;SDS011;16879;50.852;15.602;2023-02-22T07:58:22;37.78;;;24.42;;
30048;SDS011;16879;50.852;15.602;2023-02-22T08:00:49;35.22;;;22.15;;
30048;SDS011;16879;50.852;15.602;2023-02-22T08:03:16;31.88;;;21.42;;
30048;SDS011;16879;50.852;15.602;2023-02-22T08:05:49;27.38;;;17.30;;
30048;SDS011;16879;50.852;15.602;2023-02-22T08:08:16;22.90;;;14.70;;
30048;SDS011;16879;50.852;15.602;2023-02-22T08:10:42;22.50;;;14.52;;
30048;SDS011;16879;50.852;15.602;2023-02-22T08:13:08;19.52;;;12.57;;
30048;SDS011;16879;50.852;15.602;2023-02-22T08:15:51;24.85;;;14.13;;
30048;SDS011;16879;50.852;15.602;2023-02-22T08:18:28;32.40;;;15.00;;
30048;SDS011;16879;50.852;15.602;2023-02-22T08:20:54;30.70;;;13.35;;
30048;SDS011;16879;50.852;15.602;2023-02-22T08:23:39;21.85;;;11.90;;
30048;SDS011;16879;50.852;15.602;2023-02-22T08:26:17;17.95;;;10.35;;
30048;SDS011;16879;50.852;15.602;2023-02-22T08:29:09;17.50;;;9.85;;
30048;SDS011;16879;50.852;15.602;2023-02-22T08:31:36;17.90;;;9.50;;
30048;SDS011;16879;50.852;15.602;2023-02-22T08:34:14;12.85;;;9.25;;
30048;SDS011;16879;50.852;15.602;2023-02-22T08:36:41;14.00;;;7.82;;
30048;SDS011;16879;50.852;15.602;2023-02-22T08:39:07;15.40;;;9.45;;
30048;SDS011;16879;50.852;15.602;2023-02-22T08:41:34;15.90;;;9.05;;
30048;SDS011;16879;50.852;15.602;2023-02-22T08:44:00;20.30;;;11.95;;
30048;SDS011;16879;50.852;15.602;2023-02-22T08:46:27;19.80;;;12.38;;
30048;SDS011;16879;50.852;15.602;2023-02-22T08:48:53;19.50;;;11.93;;
30048;SDS011;16879;50.852;15.602;2023-02-22T08:51:19;17.10;;;11.63;;
30048;SDS011;16879;50.852;15.602;2023-02-22T08:53:46;19.25;;;11.80;;
30048;SDS011;16879;50.852;15.602;2023-02-22T08:56:12;18.73;;;12.32;;
30048;SDS011;16879;50.852;15.602;2023-02-22T08:58:38;21.55;;;13.77;;
30048;SDS011;16879;50.852;15.602;2023-02-22T09:01:04;18.45;;;13.30;;
30048;SDS011;16879;50.852;15.602;2023-02-22T09:03:30;22.90;;;12.90;;
30048;SDS011;16879;50.852;15.602;2023-02-22T09:05:57;21.48;;;13.13;;
30048;SDS011;16879;50.852;15.602;2023-02-22T09:08:23;17.33;;;12.00;;
30048;SDS011;16879;50.852;15.602;2023-02-22T09:10:49;19.10;;;11.50;;
30048;SDS011;16879;50.852;15.602;2023-02-22T09:13:16;19.10;;;11.82;;
30048;SDS011;16879;50.852;15.602;2023-02-22T09:15:42;14.43;;;10.65;;
30048;SDS011;16879;50.852;15.602;2023-02-22T09:18:08;13.05;;;9.70;;
30048;SDS011;16879;50.852;15.602;2023-02-22T09:20:35;15.93;;;8.85;;
30048;SDS011;16879;50.852;15.602;2023-02-22T09:23:02;15.57;;;8.88;;
30048;SDS011;16879;50.852;15.602;2023-02-22T09:25:29;11.90;;;7.65;;
30048;SDS011;16879;50.852;15.602;2023-02-22T09:27:58;9.27;;;6.40;;
30048;SDS011;16879;50.852;15.602;2023-02-22T09:30:27;12.02;;;6.53;;
30048;SDS011;16879;50.852;15.602;2023-02-22T09:33:30;9.82;;;5.47;;
30048;SDS011;16879;50.852;15.602;2023-02-22T09:35:50;7.25;;;5.07;;
30048;SDS011;16879;50.852;15.602;2023-02-22T09:38:17;9.63;;;6.28;;
30048;SDS011;16879;50.852;15.602;2023-02-22T09:41:07;12.70;;;7.72;;
30048;SDS011;16879;50.852;15.602;2023-02-22T09:46:32;16.95;;;9.40;;
30048;SDS011;16879;50.852;15.602;2023-02-22T09:51:41;21.55;;;12.68;;
30048;SDS011;16879;50.852;15.602;2023-02-22T09:54:51;19.60;;;10.65;;
30048;SDS011;16879;50.852;15.602;2023-02-22T09:57:02;17.65;;;9.60;;
30048;SDS011;16879;50.852;15.602;2023-02-22T09:59:30;18.58;;;11.07;;
30048;SDS011;16879;50.852;15.602;2023-02-22T10:02:02;20.27;;;12.77;;
30048;SDS011;16879;50.852;15.602;2023-02-22T10:07:25;16.63;;;10.07;;
30048;SDS011;16879;50.852;15.602;2023-02-22T10:09:53;15.30;;;9.13;;
30048;SDS011;16879;50.852;15.602;2023-02-22T10:15:25;12.57;;;7.72;;
30048;SDS011;16879;50.852;15.602;2023-02-22T10:18:01;11.98;;;8.40;;
30048;SDS011;16879;50.852;15.602;2023-02-22T10:20:34;17.10;;;9.73;;
30048;SDS011;16879;50.852;15.602;2023-02-22T10:25:43;19.58;;;11.45;;
30048;SDS011;16879;50.852;15.602;2023-02-22T10:28:23;14.70;;;10.68;;
30048;SDS011;16879;50.852;15.602;2023-02-22T10:31:01;17.63;;;10.82;;
30048;SDS011;16879;50.852;15.602;2023-02-22T10:33:29;22.05;;;12.68;;
30048;SDS011;16879;50.852;15.602;2023-02-22T10:36:02;20.25;;;12.10;;
30048;SDS011;16879;50.852;15.602;2023-02-22T10:38:29;19.92;;;11.75;;
30048;SDS011;16879;50.852;15.602;2023-02-22T10:40:58;17.40;;;11.90;;
30048;SDS011;16879;50.852;15.602;2023-02-22T10:43:26;13.43;;;8.30;;
30048;SDS011;16879;50.852;15.602;2023-02-22T10:45:54;14.85;;;9.05;;
30048;SDS011;16879;50.852;15.602;2023-02-22T10:48:23;14.13;;;8.07;;
30048;SDS011;16879;50.852;15.602;2023-02-22T10:50:51;14.57;;;10.18;;
30048;SDS011;16879;50.852;15.602;2023-02-22T10:53:19;14.88;;;10.45;;
30048;SDS011;16879;50.852;15.602;2023-02-22T10:58:39;18.70;;;12.05;;
30048;SDS011;16879;50.852;15.602;2023-02-22T11:06:23;7.70;;;5.65;;
30048;SDS011;16879;50.852;15.602;2023-02-22T11:08:50;13.82;;;8.98;;
30048;SDS011;16879;50.852;15.602;2023-02-22T11:11:21;13.60;;;8.90;;
30048;SDS011;16879;50.852;15.602;2023-02-22T11:13:57;11.07;;;8.20;;
30048;SDS011;16879;50.852;15.602;2023-02-22T11:16:34;11.13;;;7.35;;
30048;SDS011;16879;50.852;15.602;2023-02-22T11:19:35;11.43;;;8.13;;
30048;SDS011;16879;50.852;15.602;2023-02-22T11:22:07;6.65;;;4.72;;
30048;SDS011;16879;50.852;15.602;2023-02-22T11:24:48;7.50;;;4.97;;
30048;SDS011;16879;50.852;15.602;2023-02-22T11:32:45;7.40;;;4.82;;
30048;SDS011;16879;50.852;15.602;2023-02-22T11:35:29;5.95;;;4.97;;
30048;SDS011;16879;50.852;15.602;2023-02-22T11:38:15;7.22;;;4.43;;
30048;SDS011;16879;50.852;15.602;2023-02-22T11:40:41;7.10;;;4.82;;
30048;SDS011;16879;50.852;15.602;2023-02-22T11:43:12;6.00;;;4.47;;
30048;SDS011;16879;50.852;15.602;2023-02-22T11:45:49;7.18;;;3.97;;
30048;SDS011;16879;50.852;15.602;2023-02-22T11:48:20;3.92;;;3.22;;
30048;SDS011;16879;50.852;15.602;2023-02-22T11:58:45;2.97;;;2.60;;
30048;SDS011;16879;50.852;15.602;2023-02-22T12:01:25;3.35;;;3.05;;
30048;SDS011;16879;50.852;15.602;2023-02-22T12:15:22;6.18;;;3.38;;
30048;SDS011;16879;50.852;15.602;2023-02-22T12:17:56;4.47;;;3.30;;
30048;SDS011;16879;50.852;15.602;2023-02-22T12:26:03;6.45;;;3.20;;
30048;SDS011;16879;50.852;15.602;2023-02-22T12:28:34;5.28;;;3.78;;
30048;SDS011;16879;50.852;15.602;2023-02-22T12:31:14;4.18;;;3.72;;
30048;SDS011;16879;50.852;15.602;2023-02-22T12:36:27;4.70;;;4.20;;
30048;SDS011;16879;50.852;15.602;2023-02-22T12:38:59;5.18;;;3.80;;
30048;SDS011;16879;50.852;15.602;2023-02-22T12:41:33;5.57;;;4.05;;
30048;SDS011;16879;50.852;15.602;2023-02-22T12:46:38;6.30;;;3.95;;
30048;SDS011;16879;50.852;15.602;2023-02-22T13:01:54;3.92;;;3.30;;
30048;SDS011;16879;50.852;15.602;2023-02-22T13:04:22;5.93;;;3.28;;
30048;SDS011;16879;50.852;15.602;2023-02-22T13:12:12;3.53;;;2.80;;
30048;SDS011;16879;50.852;15.602;2023-02-22T13:19:51;3.85;;;2.45;;
30048;SDS011;16879;50.852;15.602;2023-02-22T13:22:22;5.05;;;2.30;;
30048;SDS011;16879;50.852;15.602;2023-02-22T13:25:35;3.13;;;2.47;;
30048;SDS011;16879;50.852;15.602;2023-02-22T13:27:40;4.28;;;2.75;;
30048;SDS011;16879;50.852;15.602;2023-02-22T13:30:42;5.75;;;3.15;;
30048;SDS011;16879;50.852;15.602;2023-02-22T13:35:42;4.45;;;3.60;;
30048;SDS011;16879;50.852;15.602;2023-02-22T13:48:58;8.40;;;3.38;;
30048;SDS011;16879;50.852;15.602;2023-02-22T13:51:42;10.23;;;5.55;;
30048;SDS011;16879;50.852;15.602;2023-02-22T13:56:45;6.38;;;3.33;;
30048;SDS011;16879;50.852;15.602;2023-02-22T14:01:54;6.57;;;3.53;;
30048;SDS011;16879;50.852;15.602;2023-02-22T14:04:22;4.70;;;3.35;;
30048;SDS011;16879;50.852;15.602;2023-02-22T14:06:57;8.00;;;2.97;;
30048;SDS011;16879;50.852;15.602;2023-02-22T14:09:41;7.43;;;2.97;;
30048;SDS011;16879;50.852;15.602;2023-02-22T14:12:54;4.18;;;2.55;;
30048;SDS011;16879;50.852;15.602;2023-02-22T14:17:37;5.45;;;3.65;;
30048;SDS011;16879;50.852;15.602;2023-02-22T14:22:39;4.38;;;3.13;;
30048;SDS011;16879;50.852;15.602;2023-02-22T14:28:04;4.15;;;3.33;;
30048;SDS011;16879;50.852;15.602;2023-02-22T14:30:31;6.85;;;4.18;;
30048;SDS011;16879;50.852;15.602;2023-02-22T14:33:00;8.38;;;4.20;;
30048;SDS011;16879;50.852;15.602;2023-02-22T14:35:37;7.75;;;3.78;;
30048;SDS011;16879;50.852;15.602;2023-02-22T14:38:06;6.75;;;3.97;;
30048;SDS011;16879;50.852;15.602;2023-02-22T14:40:39;5.20;;;3.47;;
30048;SDS011;16879;50.852;15.602;2023-02-22T14:45:34;8.48;;;5.55;;
30048;SDS011;16879;50.852;15.602;2023-02-22T14:48:11;13.60;;;5.55;;
30048;SDS011;16879;50.852;15.602;2023-02-22T14:53:22;11.02;;;4.50;;
30048;SDS011;16879;50.852;15.602;2023-02-22T14:55:56;12.45;;;4.15;;
30048;SDS011;16879;50.852;15.602;2023-02-22T15:01:24;8.13;;;3.95;;
30048;SDS011;16879;50.852;15.602;2023-02-22T15:03:52;6.70;;;3.30;;
30048;SDS011;16879;50.852;15.602;2023-02-22T15:06:23;9.48;;;4.22;;
30048;SDS011;16879;50.852;15.602;2023-02-22T15:11:38;7.70;;;3.28;;
30048;SDS011;16879;50.852;15.602;2023-02-22T15:14:13;12.98;;;4.97;;
30048;SDS011;16879;50.852;15.602;2023-02-22T15:16:42;8.57;;;3.85;;
30048;SDS011;16879;50.852;15.602;2023-02-22T15:19:11;12.23;;;3.55;;
30048;SDS011;16879;50.852;15.602;2023-02-22T15:21:39;10.40;;;4.07;;
30048;SDS011;16879;50.852;15.602;2023-02-22T15:24:09;9.50;;;3.70;;
30048;SDS011;16879;50.852;15.602;2023-02-22T15:26:45;10.60;;;3.95;;
30048;SDS011;16879;50.852;15.602;2023-02-22T15:29:20;7.88;;;3.65;;
30048;SDS011;16879;50.852;15.602;2023-02-22T15:31:47;8.63;;;3.95;;
30048;SDS011;16879;50.852;15.602;2023-02-22T15:36:41;17.55;;;4.35;;
30048;SDS011;16879;50.852;15.602;2023-02-22T15:39:19;11.23;;;4.57;;
30048;SDS011;16879;50.852;15.602;2023-02-22T15:41:59;12.57;;;4.88;;
30048;SDS011;16879;50.852;15.602;2023-02-22T15:44:26;7.97;;;3.50;;
30048;SDS011;16879;50.852;15.602;2023-02-22T15:46:52;8.65;;;3.28;;
30048;SDS011;16879;50.852;15.602;2023-02-22T15:49:21;10.52;;;3.67;;
30048;SDS011;16879;50.852;15.602;2023-02-22T15:51:51;13.07;;;5.03;;
30048;SDS011;16879;50.852;15.602;2023-02-22T15:54:25;16.23;;;5.75;;
30048;SDS011;16879;50.852;15.602;2023-02-22T15:56:52;19.75;;;6.05;;
30048;SDS011;16879;50.852;15.602;2023-02-22T15:59:22;18.48;;;6.20;;
30048;SDS011;16879;50.852;15.602;2023-02-22T16:01:53;12.05;;;5.22;;
30048;SDS011;16879;50.852;15.602;2023-02-22T16:04:21;11.52;;;4.93;;
30048;SDS011;16879;50.852;15.602;2023-02-22T16:06:48;10.52;;;4.68;;
30048;SDS011;16879;50.852;15.602;2023-02-22T16:09:16;9.68;;;4.38;;
30048;SDS011;16879;50.852;15.602;2023-02-22T16:11:46;15.52;;;4.72;;
30048;SDS011;16879;50.852;15.602;2023-02-22T16:14:28;14.95;;;6.38;;
30048;SDS011;16879;50.852;15.602;2023-02-22T16:19:49;26.67;;;8.93;;
30048;SDS011;16879;50.852;15.602;2023-02-22T16:24:51;19.80;;;8.05;;
30048;SDS011;16879;50.852;15.602;2023-02-22T16:27:20;17.85;;;7.60;;
30048;SDS011;16879;50.852;15.602;2023-02-22T16:30:06;20.55;;;7.25;;
30048;SDS011;16879;50.852;15.602;2023-02-22T16:32:33;19.42;;;6.85;;
30048;SDS011;16879;50.852;15.602;2023-02-22T16:35:00;17.80;;;7.07;;
30048;SDS011;16879;50.852;15.602;2023-02-22T16:37:26;12.68;;;5.68;;
30048;SDS011;16879;50.852;15.602;2023-02-22T16:39:52;10.93;;;5.82;;
30048;SDS011;16879;50.852;15.602;2023-02-22T16:42:19;17.85;;;5.97;;
30048;SDS011;16879;50.852;15.602;2023-02-22T16:44:51;14.10;;;5.80;;
30048;SDS011;16879;50.852;15.602;2023-02-22T16:47:18;16.98;;;7.47;;
30048;SDS011;16879;50.852;15.602;2023-02-22T16:49:47;14.30;;;7.90;;
30048;SDS011;16879;50.852;15.602;2023-02-22T16:52:16;14.60;;;6.93;;
30048;SDS011;16879;50.852;15.602;2023-02-22T16:54:44;16.17;;;8.07;;
30048;SDS011;16879;50.852;15.602;2023-02-22T16:57:19;24.00;;;9.82;;
30048;SDS011;16879;50.852;15.602;2023-02-22T16:59:46;21.70;;;10.00;;
30048;SDS011;16879;50.852;15.602;2023-02-22T17:02:16;16.33;;;8.05;;
30048;SDS011;16879;50.852;15.602;2023-02-22T17:04:43;18.52;;;8.63;;
30048;SDS011;16879;50.852;15.602;2023-02-22T17:07:17;21.48;;;8.63;;
30048;SDS011;16879;50.852;15.602;2023-02-22T17:09:44;22.42;;;9.15;;
30048;SDS011;16879;50.852;15.602;2023-02-22T17:12:10;18.17;;;7.78;;
30048;SDS011;16879;50.852;15.602;2023-02-22T17:14:36;17.05;;;8.05;;
30048;SDS011;16879;50.852;15.602;2023-02-22T17:17:05;15.27;;;8.93;;
30048;SDS011;16879;50.852;15.602;2023-02-22T17:19:32;21.40;;;10.63;;
30048;SDS011;16879;50.852;15.602;2023-02-22T17:21:58;20.25;;;8.95;;
30048;SDS011;16879;50.852;15.602;2023-02-22T17:24:30;19.13;;;8.15;;
30048;SDS011;16879;50.852;15.602;2023-02-22T17:26:58;23.45;;;10.30;;
30048;SDS011;16879;50.852;15.602;2023-02-22T17:29:24;20.45;;;7.68;;